Terminal Aerodrome Forecast
Issued by NWS Cleveland, OH

Home | Current Version | Previous Version | Text Only | Print | Product List | Glossary Off
Versions: 1 2 3 4 5 6 7 8 9 10 11 12 13 14 15 16 17 18 19

000
FTUS41 KCLE 131440 AAA
TAFYNG
TAF AMD
KYNG 131440Z 1315/1412 24010KT P6SM VCSH SCT025 OVC045
      TEMPO 1315/1317 4SM -SHSN BKN025
     FM131900 21010KT 3SM -SN OVC015
      TEMPO 1402/1406 1/2SM SN OVC006
     FM140600 05006KT 4SM -SN SCT006 OVC012
     FM140900 02008KT P6SM OVC015=

USA.gov is the U.S. government's official web portal to all federal, state and local government web resources and services.